Terminal Aerodrome Forecast
Issued by NWS Boise, ID

Current Version | Previous Version | Text Only | Print | Product List | Glossary On
Versions: 1 2 3 4 5 6 7 8 9 10 11 12 13 14 15 16 17 18 19 20 21 22 23 24 25 26 27 28 29 30 31 32 33 34
000
FTUS45 KBOI 021734
TAFBOI
TAF
KBOI 021734Z 0218/0318 11007KT P6SM SCT080
     FM022100 31008KT P6SM BKN150
     FM030600 31012KT P6SM SCT050=

USA.gov is the U.S. government's official web portal to all federal, state and local government web resources and services.